sensor_id;sensor_type;location;lat;lon;timestamp;temperature;humidity
12604;DHT22;6367;52.508;13.284;2023-02-12T00:02:24;11.20;99.90
12604;DHT22;6367;52.508;13.284;2023-02-12T00:04:49;11.10;99.90
12604;DHT22;6367;52.508;13.284;2023-02-12T00:07:15;11.10;99.90
12604;DHT22;6367;52.508;13.284;2023-02-12T00:09:41;11.20;99.90
12604;DHT22;6367;52.508;13.284;2023-02-12T00:12:07;11.20;99.90
12604;DHT22;6367;52.508;13.284;2023-02-12T00:14:32;11.20;99.90
12604;DHT22;6367;52.508;13.284;2023-02-12T00:16:59;11.10;99.90
12604;DHT22;6367;52.508;13.284;2023-02-12T00:19:25;11.70;99.90
12604;DHT22;6367;52.508;13.284;2023-02-12T00:21:50;11.10;99.90
12604;DHT22;6367;52.508;13.284;2023-02-12T00:24:16;11.10;99.90
12604;DHT22;6367;52.508;13.284;2023-02-12T00:26:41;11.10;99.90
12604;DHT22;6367;52.508;13.284;2023-02-12T00:29:08;11.10;99.90
12604;DHT22;6367;52.508;13.284;2023-02-12T00:31:34;11.10;99.90
12604;DHT22;6367;52.508;13.284;2023-02-12T00:34:00;11.10;99.90
12604;DHT22;6367;52.508;13.284;2023-02-12T00:36:27;11.20;99.90
12604;DHT22;6367;52.508;13.284;2023-02-12T00:38:54;11.20;99.90
12604;DHT22;6367;52.508;13.284;2023-02-12T00:41:21;11.20;99.90
12604;DHT22;6367;52.508;13.284;2023-02-12T00:43:47;11.20;99.90
12604;DHT22;6367;52.508;13.284;2023-02-12T00:46:13;11.10;99.90
12604;DHT22;6367;52.508;13.284;2023-02-12T00:48:38;11.30;99.90
12604;DHT22;6367;52.508;13.284;2023-02-12T00:51:05;11.10;99.90
12604;DHT22;6367;52.508;13.284;2023-02-12T00:53:31;11.10;99.90
12604;DHT22;6367;52.508;13.284;2023-02-12T00:55:57;11.10;99.90
12604;DHT22;6367;52.508;13.284;2023-02-12T00:58:23;11.10;99.90
12604;DHT22;6367;52.508;13.284;2023-02-12T01:00:48;11.10;99.90
12604;DHT22;6367;52.508;13.284;2023-02-12T01:03:15;11.10;99.90
12604;DHT22;6367;52.508;13.284;2023-02-12T01:05:41;11.10;99.90
12604;DHT22;6367;52.508;13.284;2023-02-12T01:08:07;11.10;99.90
12604;DHT22;6367;52.508;13.284;2023-02-12T01:10:33;11.10;99.90
12604;DHT22;6367;52.508;13.284;2023-02-12T01:12:59;11.10;99.90
12604;DHT22;6367;52.508;13.284;2023-02-12T01:15:25;11.10;99.90
12604;DHT22;6367;52.508;13.284;2023-02-12T01:17:52;11.10;99.90
12604;DHT22;6367;52.508;13.284;2023-02-12T01:20:19;11.10;99.90
12604;DHT22;6367;52.508;13.284;2023-02-12T01:22:46;11.10;99.90
12604;DHT22;6367;52.508;13.284;2023-02-12T01:25:11;11.00;99.90
12604;DHT22;6367;52.508;13.284;2023-02-12T01:27:37;11.00;99.90
12604;DHT22;6367;52.508;13.284;2023-02-12T01:30:05;11.00;99.90
12604;DHT22;6367;52.508;13.284;2023-02-12T01:32:32;11.00;99.90
12604;DHT22;6367;52.508;13.284;2023-02-12T01:34:58;11.10;99.90
12604;DHT22;6367;52.508;13.284;2023-02-12T01:37:24;11.00;99.90
12604;DHT22;6367;52.508;13.284;2023-02-12T01:39:49;11.00;99.90
12604;DHT22;6367;52.508;13.284;2023-02-12T01:42:15;11.00;99.90
12604;DHT22;6367;52.508;13.284;2023-02-12T01:47:39;11.00;99.90
12604;DHT22;6367;52.508;13.284;2023-02-12T01:50:07;11.00;99.90
12604;DHT22;6367;52.508;13.284;2023-02-12T01:52:35;11.00;99.90
12604;DHT22;6367;52.508;13.284;2023-02-12T01:55:06;11.00;99.90
12604;DHT22;6367;52.508;13.284;2023-02-12T01:57:34;11.10;99.90
12604;DHT22;6367;52.508;13.284;2023-02-12T02:00:03;11.10;99.90
12604;DHT22;6367;52.508;13.284;2023-02-12T02:02:30;11.10;99.90
12604;DHT22;6367;52.508;13.284;2023-02-12T02:05:02;11.50;99.90
12604;DHT22;6367;52.508;13.284;2023-02-12T02:07:28;11.00;99.90
12604;DHT22;6367;52.508;13.284;2023-02-12T02:09:55;11.00;99.90
12604;DHT22;6367;52.508;13.284;2023-02-12T02:12:22;11.10;99.90
12604;DHT22;6367;52.508;13.284;2023-02-12T02:15:07;11.10;99.90
12604;DHT22;6367;52.508;13.284;2023-02-12T02:20:54;11.00;99.90
12604;DHT22;6367;52.508;13.284;2023-02-12T02:23:51;11.00;99.90
12604;DHT22;6367;52.508;13.284;2023-02-12T02:32:11;11.00;99.90
12604;DHT22;6367;52.508;13.284;2023-02-12T02:34:52;11.00;99.90
12604;DHT22;6367;52.508;13.284;2023-02-12T02:40:13;10.40;99.90
12604;DHT22;6367;52.508;13.284;2023-02-12T02:42:52;11.00;99.90
12604;DHT22;6367;52.508;13.284;2023-02-12T02:45:48;11.00;99.90
12604;DHT22;6367;52.508;13.284;2023-02-12T02:48:19;11.00;99.90
12604;DHT22;6367;52.508;13.284;2023-02-12T02:50:51;11.00;99.90
12604;DHT22;6367;52.508;13.284;2023-02-12T02:53:40;11.00;99.90
12604;DHT22;6367;52.508;13.284;2023-02-12T02:56:13;11.00;99.90
12604;DHT22;6367;52.508;13.284;2023-02-12T02:58:46;11.00;99.90
12604;DHT22;6367;52.508;13.284;2023-02-12T03:01:15;11.00;99.90
12604;DHT22;6367;52.508;13.284;2023-02-12T03:04:02;11.00;99.90
12604;DHT22;6367;52.508;13.284;2023-02-12T03:06:51;11.10;99.90
12604;DHT22;6367;52.508;13.284;2023-02-12T03:11:48;11.00;99.90
12604;DHT22;6367;52.508;13.284;2023-02-12T03:14:22;11.00;99.90
12604;DHT22;6367;52.508;13.284;2023-02-12T03:17:09;11.10;99.90
12604;DHT22;6367;52.508;13.284;2023-02-12T03:19:43;11.10;99.90
12604;DHT22;6367;52.508;13.284;2023-02-12T03:22:12;11.10;99.90
12604;DHT22;6367;52.508;13.284;2023-02-12T03:24:52;11.00;99.90
12604;DHT22;6367;52.508;13.284;2023-02-12T03:29:49;11.00;99.90
12604;DHT22;6367;52.508;13.284;2023-02-12T03:32:27;11.10;99.90
12604;DHT22;6367;52.508;13.284;2023-02-12T03:37:41;11.00;99.90
12604;DHT22;6367;52.508;13.284;2023-02-12T03:40:19;10.90;99.90
12604;DHT22;6367;52.508;13.284;2023-02-12T03:43:07;11.00;99.90
12604;DHT22;6367;52.508;13.284;2023-02-12T03:45:44;11.30;99.90
12604;DHT22;6367;52.508;13.284;2023-02-12T03:50:57;10.90;99.90
12604;DHT22;6367;52.508;13.284;2023-02-12T03:53:29;11.00;99.90
12604;DHT22;6367;52.508;13.284;2023-02-12T03:56:03;10.90;99.90
12604;DHT22;6367;52.508;13.284;2023-02-12T03:58:33;10.90;99.90
12604;DHT22;6367;52.508;13.284;2023-02-12T04:01:03;10.90;99.90
12604;DHT22;6367;52.508;13.284;2023-02-12T04:03:29;11.00;99.90
12604;DHT22;6367;52.508;13.284;2023-02-12T04:05:55;10.50;99.90
12604;DHT22;6367;52.508;13.284;2023-02-12T04:08:21;10.90;99.90
12604;DHT22;6367;52.508;13.284;2023-02-12T04:11:12;11.50;99.90
12604;DHT22;6367;52.508;13.284;2023-02-12T04:16:34;11.00;99.90
12604;DHT22;6367;52.508;13.284;2023-02-12T04:19:02;11.00;99.90
12604;DHT22;6367;52.508;13.284;2023-02-12T04:21:55;11.00;99.90
12604;DHT22;6367;52.508;13.284;2023-02-12T04:27:34;11.00;99.90
12604;DHT22;6367;52.508;13.284;2023-02-12T04:30:15;11.00;99.90
12604;DHT22;6367;52.508;13.284;2023-02-12T04:32:52;11.00;99.90
12604;DHT22;6367;52.508;13.284;2023-02-12T04:35:23;10.90;99.90
12604;DHT22;6367;52.508;13.284;2023-02-12T04:38:30;11.00;99.90
12604;DHT22;6367;52.508;13.284;2023-02-12T04:40:57;11.00;99.90
12604;DHT22;6367;52.508;13.284;2023-02-12T04:43:32;11.70;99.90
12604;DHT22;6367;52.508;13.284;2023-02-12T04:45:59;11.00;99.90
12604;DHT22;6367;52.508;13.284;2023-02-12T04:48:25;11.00;99.90
12604;DHT22;6367;52.508;13.284;2023-02-12T04:50:51;11.10;99.90
12604;DHT22;6367;52.508;13.284;2023-02-12T04:53:17;11.00;99.90
12604;DHT22;6367;52.508;13.284;2023-02-12T04:55:42;11.00;99.90
12604;DHT22;6367;52.508;13.284;2023-02-12T04:58:09;10.90;99.90
12604;DHT22;6367;52.508;13.284;2023-02-12T05:00:34;10.90;99.90
12604;DHT22;6367;52.508;13.284;2023-02-12T05:03:00;11.00;99.90
12604;DHT22;6367;52.508;13.284;2023-02-12T05:05:26;11.00;99.90
12604;DHT22;6367;52.508;13.284;2023-02-12T05:07:52;11.00;99.90
12604;DHT22;6367;52.508;13.284;2023-02-12T05:10:18;11.00;99.90
12604;DHT22;6367;52.508;13.284;2023-02-12T05:12:44;11.00;99.90
12604;DHT22;6367;52.508;13.284;2023-02-12T05:15:10;10.90;99.90
12604;DHT22;6367;52.508;13.284;2023-02-12T05:17:35;10.90;99.90
12604;DHT22;6367;52.508;13.284;2023-02-12T05:20:02;10.90;99.90
12604;DHT22;6367;52.508;13.284;2023-02-12T05:22:27;10.90;99.90
12604;DHT22;6367;52.508;13.284;2023-02-12T05:24:53;10.90;99.90
12604;DHT22;6367;52.508;13.284;2023-02-12T05:27:19;10.90;99.90
12604;DHT22;6367;52.508;13.284;2023-02-12T05:29:44;10.80;99.90
12604;DHT22;6367;52.508;13.284;2023-02-12T05:32:10;11.00;99.90
12604;DHT22;6367;52.508;13.284;2023-02-12T05:34:36;11.00;99.90
12604;DHT22;6367;52.508;13.284;2023-02-12T05:37:01;10.90;99.90
12604;DHT22;6367;52.508;13.284;2023-02-12T05:39:27;10.90;99.90
12604;DHT22;6367;52.508;13.284;2023-02-12T05:41:56;10.90;99.90
12604;DHT22;6367;52.508;13.284;2023-02-12T05:44:21;11.00;99.90
12604;DHT22;6367;52.508;13.284;2023-02-12T05:46:47;11.00;99.90
12604;DHT22;6367;52.508;13.284;2023-02-12T05:49:13;11.00;99.90
12604;DHT22;6367;52.508;13.284;2023-02-12T05:51:39;11.00;99.90
12604;DHT22;6367;52.508;13.284;2023-02-12T05:54:05;11.40;99.90
12604;DHT22;6367;52.508;13.284;2023-02-12T05:56:51;10.80;99.90
12604;DHT22;6367;52.508;13.284;2023-02-12T05:59:20;10.90;99.90
12604;DHT22;6367;52.508;13.284;2023-02-12T06:01:47;10.90;99.90
12604;DHT22;6367;52.508;13.284;2023-02-12T06:04:22;11.00;99.90
12604;DHT22;6367;52.508;13.284;2023-02-12T06:06:49;11.30;99.90
12604;DHT22;6367;52.508;13.284;2023-02-12T06:09:15;10.90;99.90
12604;DHT22;6367;52.508;13.284;2023-02-12T06:11:41;10.90;99.90
12604;DHT22;6367;52.508;13.284;2023-02-12T06:14:10;11.00;99.90
12604;DHT22;6367;52.508;13.284;2023-02-12T06:16:36;10.90;99.90
12604;DHT22;6367;52.508;13.284;2023-02-12T06:19:03;11.00;99.90
12604;DHT22;6367;52.508;13.284;2023-02-12T06:21:30;10.90;99.90
12604;DHT22;6367;52.508;13.284;2023-02-12T06:23:56;11.00;99.90
12604;DHT22;6367;52.508;13.284;2023-02-12T06:26:22;11.40;99.90
12604;DHT22;6367;52.508;13.284;2023-02-12T06:28:48;11.00;99.90
12604;DHT22;6367;52.508;13.284;2023-02-12T06:31:25;10.90;99.90
12604;DHT22;6367;52.508;13.284;2023-02-12T06:33:52;10.90;99.90
12604;DHT22;6367;52.508;13.284;2023-02-12T06:36:19;11.00;99.90
12604;DHT22;6367;52.508;13.284;2023-02-12T06:38:45;11.00;99.90
12604;DHT22;6367;52.508;13.284;2023-02-12T06:41:11;11.00;99.90
12604;DHT22;6367;52.508;13.284;2023-02-12T06:43:37;10.90;99.90
12604;DHT22;6367;52.508;13.284;2023-02-12T06:46:03;10.90;99.90
12604;DHT22;6367;52.508;13.284;2023-02-12T06:48:30;10.90;99.90
12604;DHT22;6367;52.508;13.284;2023-02-12T06:51:02;10.90;99.90
12604;DHT22;6367;52.508;13.284;2023-02-12T06:53:28;10.90;99.90
12604;DHT22;6367;52.508;13.284;2023-02-12T06:55:53;10.90;99.90
12604;DHT22;6367;52.508;13.284;2023-02-12T06:58:19;10.90;99.90
12604;DHT22;6367;52.508;13.284;2023-02-12T07:00:44;11.00;99.90
12604;DHT22;6367;52.508;13.284;2023-02-12T07:03:10;11.10;99.90
12604;DHT22;6367;52.508;13.284;2023-02-12T07:05:38;11.00;99.90
12604;DHT22;6367;52.508;13.284;2023-02-12T07:08:04;11.40;99.90
12604;DHT22;6367;52.508;13.284;2023-02-12T07:10:30;11.00;99.90
12604;DHT22;6367;52.508;13.284;2023-02-12T07:12:55;11.00;99.90
12604;DHT22;6367;52.508;13.284;2023-02-12T07:15:21;11.00;99.90
12604;DHT22;6367;52.508;13.284;2023-02-12T07:17:47;10.90;99.90
12604;DHT22;6367;52.508;13.284;2023-02-12T07:20:12;10.90;99.90
12604;DHT22;6367;52.508;13.284;2023-02-12T07:22:38;11.00;99.90
12604;DHT22;6367;52.508;13.284;2023-02-12T07:25:04;11.00;99.90
12604;DHT22;6367;52.508;13.284;2023-02-12T07:27:30;10.90;99.90
12604;DHT22;6367;52.508;13.284;2023-02-12T07:29:55;11.00;99.90
12604;DHT22;6367;52.508;13.284;2023-02-12T07:32:21;11.00;99.90
12604;DHT22;6367;52.508;13.284;2023-02-12T07:34:46;11.00;99.90
12604;DHT22;6367;52.508;13.284;2023-02-12T07:37:12;10.90;99.90
12604;DHT22;6367;52.508;13.284;2023-02-12T07:39:38;11.00;99.90
12604;DHT22;6367;52.508;13.284;2023-02-12T07:42:03;11.00;99.90
12604;DHT22;6367;52.508;13.284;2023-02-12T07:44:29;11.00;99.90
12604;DHT22;6367;52.508;13.284;2023-02-12T07:46:55;11.10;99.90
12604;DHT22;6367;52.508;13.284;2023-02-12T07:49:21;11.10;99.90
12604;DHT22;6367;52.508;13.284;2023-02-12T07:51:48;11.00;99.90
12604;DHT22;6367;52.508;13.284;2023-02-12T07:54:15;11.00;99.90
12604;DHT22;6367;52.508;13.284;2023-02-12T07:56:42;11.10;99.90
12604;DHT22;6367;52.508;13.284;2023-02-12T07:59:13;11.10;99.90
12604;DHT22;6367;52.508;13.284;2023-02-12T08:01:50;11.10;99.90
12604;DHT22;6367;52.508;13.284;2023-02-12T08:04:22;11.10;99.90
12604;DHT22;6367;52.508;13.284;2023-02-12T08:06:50;11.10;99.90
12604;DHT22;6367;52.508;13.284;2023-02-12T08:09:21;11.70;99.90
12604;DHT22;6367;52.508;13.284;2023-02-12T08:11:47;11.20;99.90
12604;DHT22;6367;52.508;13.284;2023-02-12T08:14:15;11.20;99.90
12604;DHT22;6367;52.508;13.284;2023-02-12T08:16:42;11.30;99.90
12604;DHT22;6367;52.508;13.284;2023-02-12T08:19:08;10.80;99.90
12604;DHT22;6367;52.508;13.284;2023-02-12T08:21:34;11.40;99.90
12604;DHT22;6367;52.508;13.284;2023-02-12T08:23:59;11.40;99.90
12604;DHT22;6367;52.508;13.284;2023-02-12T08:26:30;11.40;99.90
12604;DHT22;6367;52.508;13.284;2023-02-12T08:28:58;11.40;99.90
12604;DHT22;6367;52.508;13.284;2023-02-12T08:31:36;11.40;99.90
12604;DHT22;6367;52.508;13.284;2023-02-12T08:34:02;11.50;99.90
12604;DHT22;6367;52.508;13.284;2023-02-12T08:36:34;11.50;99.90
12604;DHT22;6367;52.508;13.284;2023-02-12T08:39:00;11.50;99.90
12604;DHT22;6367;52.508;13.284;2023-02-12T08:41:27;11.50;99.90
12604;DHT22;6367;52.508;13.284;2023-02-12T08:43:59;11.50;99.90
12604;DHT22;6367;52.508;13.284;2023-02-12T08:46:27;11.50;99.90
12604;DHT22;6367;52.508;13.284;2023-02-12T08:49:03;11.50;99.90
12604;DHT22;6367;52.508;13.284;2023-02-12T08:51:31;11.60;99.90
12604;DHT22;6367;52.508;13.284;2023-02-12T08:54:00;11.60;99.90
12604;DHT22;6367;52.508;13.284;2023-02-12T08:56:26;11.60;99.90
12604;DHT22;6367;52.508;13.284;2023-02-12T08:58:55;11.70;99.90
12604;DHT22;6367;52.508;13.284;2023-02-12T09:01:23;11.70;99.90
12604;DHT22;6367;52.508;13.284;2023-02-12T09:03:49;11.70;99.90
12604;DHT22;6367;52.508;13.284;2023-02-12T09:06:17;11.60;99.90
12604;DHT22;6367;52.508;13.284;2023-02-12T09:08:43;11.60;99.90
12604;DHT22;6367;52.508;13.284;2023-02-12T09:11:12;11.60;99.90
12604;DHT22;6367;52.508;13.284;2023-02-12T09:13:39;11.60;99.90
12604;DHT22;6367;52.508;13.284;2023-02-12T09:16:05;11.60;99.90
12604;DHT22;6367;52.508;13.284;2023-02-12T09:18:32;11.60;99.90
12604;DHT22;6367;52.508;13.284;2023-02-12T09:21:09;11.60;99.90
12604;DHT22;6367;52.508;13.284;2023-02-12T09:23:36;11.60;99.90
12604;DHT22;6367;52.508;13.284;2023-02-12T09:26:06;11.60;99.90
12604;DHT22;6367;52.508;13.284;2023-02-12T09:28:33;11.60;99.90
12604;DHT22;6367;52.508;13.284;2023-02-12T09:31:03;11.60;99.90
12604;DHT22;6367;52.508;13.284;2023-02-12T09:33:28;11.70;99.90
12604;DHT22;6367;52.508;13.284;2023-02-12T09:35:54;11.80;99.90
12604;DHT22;6367;52.508;13.284;2023-02-12T09:38:19;11.70;99.90
12604;DHT22;6367;52.508;13.284;2023-02-12T09:46:30;11.90;99.90
12604;DHT22;6367;52.508;13.284;2023-02-12T09:49:09;11.90;99.90
12604;DHT22;6367;52.508;13.284;2023-02-12T09:51:39;11.80;99.90
12604;DHT22;6367;52.508;13.284;2023-02-12T09:54:11;11.90;99.90
12604;DHT22;6367;52.508;13.284;2023-02-12T09:56:40;12.00;99.90
12604;DHT22;6367;52.508;13.284;2023-02-12T09:59:07;11.90;99.90
12604;DHT22;6367;52.508;13.284;2023-02-12T10:01:34;12.00;99.90
12604;DHT22;6367;52.508;13.284;2023-02-12T10:04:00;11.90;99.90
12604;DHT22;6367;52.508;13.284;2023-02-12T10:06:35;12.00;99.90
12604;DHT22;6367;52.508;13.284;2023-02-12T10:09:35;12.10;99.90
12604;DHT22;6367;52.508;13.284;2023-02-12T10:12:20;12.10;99.90
12604;DHT22;6367;52.508;13.284;2023-02-12T10:17:50;12.10;99.90
12604;DHT22;6367;52.508;13.284;2023-02-12T10:20:51;12.10;99.90
12604;DHT22;6367;52.508;13.284;2023-02-12T10:23:43;12.10;99.90
12604;DHT22;6367;52.508;13.284;2023-02-12T10:28:44;12.10;99.90
12604;DHT22;6367;52.508;13.284;2023-02-12T10:31:31;12.10;99.90
12604;DHT22;6367;52.508;13.284;2023-02-12T10:33:58;12.10;99.90
12604;DHT22;6367;52.508;13.284;2023-02-12T10:36:43;12.10;99.90
12604;DHT22;6367;52.508;13.284;2023-02-12T10:41:40;12.00;99.90
12604;DHT22;6367;52.508;13.284;2023-02-12T10:44:09;12.00;99.90
12604;DHT22;6367;52.508;13.284;2023-02-12T10:46:36;12.10;99.90
12604;DHT22;6367;52.508;13.284;2023-02-12T10:49:02;12.00;99.90
12604;DHT22;6367;52.508;13.284;2023-02-12T10:56:57;12.20;99.90
12604;DHT22;6367;52.508;13.284;2023-02-12T10:59:22;12.10;99.90
12604;DHT22;6367;52.508;13.284;2023-02-12T11:01:48;12.20;99.90
12604;DHT22;6367;52.508;13.284;2023-02-12T11:04:28;12.10;99.90
12604;DHT22;6367;52.508;13.284;2023-02-12T11:09:46;12.10;99.90
12604;DHT22;6367;52.508;13.284;2023-02-12T11:15:09;12.10;99.90
12604;DHT22;6367;52.508;13.284;2023-02-12T11:17:39;12.10;99.90
12604;DHT22;6367;52.508;13.284;2023-02-12T11:20:14;12.10;99.90
12604;DHT22;6367;52.508;13.284;2023-02-12T11:23:04;12.10;99.90
12604;DHT22;6367;52.508;13.284;2023-02-12T11:25:35;12.10;99.90
12604;DHT22;6367;52.508;13.284;2023-02-12T11:30:27;12.10;99.90
12604;DHT22;6367;52.508;13.284;2023-02-12T11:32:53;12.00;99.90
12604;DHT22;6367;52.508;13.284;2023-02-12T11:35:23;12.00;99.90
12604;DHT22;6367;52.508;13.284;2023-02-12T11:37:54;12.10;99.90
12604;DHT22;6367;52.508;13.284;2023-02-12T11:40:28;12.20;99.90
12604;DHT22;6367;52.508;13.284;2023-02-12T11:43:01;12.10;99.90
12604;DHT22;6367;52.508;13.284;2023-02-12T11:45:43;12.10;99.90
12604;DHT22;6367;52.508;13.284;2023-02-12T11:48:21;12.10;99.90
12604;DHT22;6367;52.508;13.284;2023-02-12T11:50:50;12.20;99.90
12604;DHT22;6367;52.508;13.284;2023-02-12T11:53:32;12.30;99.90
12604;DHT22;6367;52.508;13.284;2023-02-12T11:56:06;12.20;99.90
12604;DHT22;6367;52.508;13.284;2023-02-12T11:58:33;11.80;99.90
12604;DHT22;6367;52.508;13.284;2023-02-12T12:01:14;12.20;99.90
12604;DHT22;6367;52.508;13.284;2023-02-12T12:03:59;12.10;99.90
12604;DHT22;6367;52.508;13.284;2023-02-12T12:06:39;12.20;99.90
12604;DHT22;6367;52.508;13.284;2023-02-12T12:14:45;12.10;99.90
12604;DHT22;6367;52.508;13.284;2023-02-12T12:18:03;12.20;99.90
12604;DHT22;6367;52.508;13.284;2023-02-12T12:20:56;12.20;99.90
12604;DHT22;6367;52.508;13.284;2023-02-12T12:23:44;12.30;99.90
12604;DHT22;6367;52.508;13.284;2023-02-12T12:26:17;12.90;99.90
12604;DHT22;6367;52.508;13.284;2023-02-12T12:31:26;12.30;99.90
12604;DHT22;6367;52.508;13.284;2023-02-12T12:34:14;12.40;99.90
12604;DHT22;6367;52.508;13.284;2023-02-12T12:39:27;12.40;99.90
12604;DHT22;6367;52.508;13.284;2023-02-12T12:56:17;12.50;99.90
12604;DHT22;6367;52.508;13.284;2023-02-12T13:05:35;12.60;99.90
12604;DHT22;6367;52.508;13.284;2023-02-12T13:11:05;12.70;99.90
12604;DHT22;6367;52.508;13.284;2023-02-12T13:13:45;12.70;99.90
12604;DHT22;6367;52.508;13.284;2023-02-12T13:16:32;12.60;99.90
12604;DHT22;6367;52.508;13.284;2023-02-12T13:26:54;12.60;99.90
12604;DHT22;6367;52.508;13.284;2023-02-12T13:29:31;12.60;99.90
12604;DHT22;6367;52.508;13.284;2023-02-12T13:34:30;12.70;99.90
12604;DHT22;6367;52.508;13.284;2023-02-12T13:36:59;12.80;99.90
12604;DHT22;6367;52.508;13.284;2023-02-12T13:39:35;12.80;99.90
12604;DHT22;6367;52.508;13.284;2023-02-12T13:45:06;12.90;99.90
12604;DHT22;6367;52.508;13.284;2023-02-12T13:50:44;12.90;99.90
12604;DHT22;6367;52.508;13.284;2023-02-12T13:58:51;12.90;99.90
12604;DHT22;6367;52.508;13.284;2023-02-12T14:01:37;12.80;99.90
12604;DHT22;6367;52.508;13.284;2023-02-12T14:04:25;12.90;99.90
12604;DHT22;6367;52.508;13.284;2023-02-12T14:07:07;12.90;99.90
12604;DHT22;6367;52.508;13.284;2023-02-12T14:09:45;13.00;99.90
12604;DHT22;6367;52.508;13.284;2023-02-12T14:20:28;13.10;99.90
12604;DHT22;6367;52.508;13.284;2023-02-12T14:22:59;13.20;99.90
12604;DHT22;6367;52.508;13.284;2023-02-12T14:25:34;13.20;99.90
12604;DHT22;6367;52.508;13.284;2023-02-12T14:28:21;13.20;99.90
12604;DHT22;6367;52.508;13.284;2023-02-12T14:33:50;13.30;99.90
12604;DHT22;6367;52.508;13.284;2023-02-12T14:38:55;13.30;99.90
12604;DHT22;6367;52.508;13.284;2023-02-12T14:41:22;13.30;99.90
12604;DHT22;6367;52.508;13.284;2023-02-12T14:46:52;13.30;99.90
12604;DHT22;6367;52.508;13.284;2023-02-12T14:51:51;13.30;99.90
12604;DHT22;6367;52.508;13.284;2023-02-12T14:54:40;13.40;99.90
12604;DHT22;6367;52.508;13.284;2023-02-12T14:57:41;13.40;99.90
12604;DHT22;6367;52.508;13.284;2023-02-12T15:05:30;13.30;99.90
12604;DHT22;6367;52.508;13.284;2023-02-12T15:08:04;13.10;99.90
12604;DHT22;6367;52.508;13.284;2023-02-12T15:16:21;13.50;99.90
12604;DHT22;6367;52.508;13.284;2023-02-12T15:18:57;13.50;99.90
12604;DHT22;6367;52.508;13.284;2023-02-12T15:21:26;13.50;99.90
12604;DHT22;6367;52.508;13.284;2023-02-12T15:24:13;13.40;99.90
12604;DHT22;6367;52.508;13.284;2023-02-12T15:26:56;13.30;99.90
12604;DHT22;6367;52.508;13.284;2023-02-12T15:29:36;13.30;99.90
12604;DHT22;6367;52.508;13.284;2023-02-12T15:32:07;13.30;99.90
12604;DHT22;6367;52.508;13.284;2023-02-12T15:34:36;13.30;99.90
12604;DHT22;6367;52.508;13.284;2023-02-12T15:37:04;13.20;99.90
12604;DHT22;6367;52.508;13.284;2023-02-12T15:39:42;13.30;99.90
12604;DHT22;6367;52.508;13.284;2023-02-12T15:47:39;13.20;99.90
12604;DHT22;6367;52.508;13.284;2023-02-12T15:50:14;13.10;99.90
12604;DHT22;6367;52.508;13.284;2023-02-12T15:52:43;13.10;99.90
12604;DHT22;6367;52.508;13.284;2023-02-12T15:55:19;13.10;99.90
12604;DHT22;6367;52.508;13.284;2023-02-12T15:57:53;13.00;99.90
12604;DHT22;6367;52.508;13.284;2023-02-12T16:00:31;13.10;99.90
12604;DHT22;6367;52.508;13.284;2023-02-12T16:02:59;13.10;99.90
12604;DHT22;6367;52.508;13.284;2023-02-12T16:05:25;13.00;99.90
12604;DHT22;6367;52.508;13.284;2023-02-12T16:07:52;13.00;99.90
12604;DHT22;6367;52.508;13.284;2023-02-12T16:10:19;13.00;99.90
12604;DHT22;6367;52.508;13.284;2023-02-12T16:12:46;12.90;99.90
12604;DHT22;6367;52.508;13.284;2023-02-12T16:15:27;12.90;99.90
12604;DHT22;6367;52.508;13.284;2023-02-12T16:17:53;12.90;99.90
12604;DHT22;6367;52.508;13.284;2023-02-12T16:20:24;12.90;99.90
12604;DHT22;6367;52.508;13.284;2023-02-12T16:22:50;12.90;99.90
12604;DHT22;6367;52.508;13.284;2023-02-12T16:25:29;12.90;99.90
12604;DHT22;6367;52.508;13.284;2023-02-12T16:28:15;12.80;99.90
12604;DHT22;6367;52.508;13.284;2023-02-12T16:30:43;12.80;99.90
12604;DHT22;6367;52.508;13.284;2023-02-12T16:36:04;12.80;99.90
12604;DHT22;6367;52.508;13.284;2023-02-12T16:38:46;12.80;99.90
12604;DHT22;6367;52.508;13.284;2023-02-12T16:44:19;12.70;99.90
12604;DHT22;6367;52.508;13.284;2023-02-12T16:46:51;12.70;99.90
12604;DHT22;6367;52.508;13.284;2023-02-12T16:49:20;12.70;99.90
12604;DHT22;6367;52.508;13.284;2023-02-12T16:51:47;13.20;99.90
12604;DHT22;6367;52.508;13.284;2023-02-12T16:54:34;12.70;99.90
12604;DHT22;6367;52.508;13.284;2023-02-12T16:57:00;12.60;99.90
12604;DHT22;6367;52.508;13.284;2023-02-12T16:59:27;12.60;99.90
12604;DHT22;6367;52.508;13.284;2023-02-12T17:01:58;12.60;99.90
12604;DHT22;6367;52.508;13.284;2023-02-12T17:04:24;12.60;99.90
12604;DHT22;6367;52.508;13.284;2023-02-12T17:06:51;12.60;99.90
12604;DHT22;6367;52.508;13.284;2023-02-12T17:09:16;12.60;99.90
12604;DHT22;6367;52.508;13.284;2023-02-12T17:11:45;12.60;99.90
12604;DHT22;6367;52.508;13.284;2023-02-12T17:14:16;12.60;99.90
12604;DHT22;6367;52.508;13.284;2023-02-12T17:16:43;12.60;99.90
12604;DHT22;6367;52.508;13.284;2023-02-12T17:19:09;12.60;99.90
12604;DHT22;6367;52.508;13.284;2023-02-12T17:21:37;12.60;99.90
12604;DHT22;6367;52.508;13.284;2023-02-12T17:26:39;12.60;99.90
12604;DHT22;6367;52.508;13.284;2023-02-12T17:29:05;12.60;99.90
12604;DHT22;6367;52.508;13.284;2023-02-12T17:31:34;12.60;99.90
12604;DHT22;6367;52.508;13.284;2023-02-12T17:34:01;12.60;99.90
12604;DHT22;6367;52.508;13.284;2023-02-12T17:36:27;12.60;99.90
12604;DHT22;6367;52.508;13.284;2023-02-12T17:38:52;12.60;99.90
12604;DHT22;6367;52.508;13.284;2023-02-12T17:41:18;12.60;99.90
12604;DHT22;6367;52.508;13.284;2023-02-12T17:43:44;12.60;99.90
12604;DHT22;6367;52.508;13.284;2023-02-12T17:46:22;12.70;99.90
12604;DHT22;6367;52.508;13.284;2023-02-12T17:48:48;12.60;99.90
12604;DHT22;6367;52.508;13.284;2023-02-12T17:51:14;12.60;99.90
12604;DHT22;6367;52.508;13.284;2023-02-12T17:53:40;12.50;99.90
12604;DHT22;6367;52.508;13.284;2023-02-12T17:56:10;12.50;99.90
12604;DHT22;6367;52.508;13.284;2023-02-12T17:58:37;12.50;99.90
12604;DHT22;6367;52.508;13.284;2023-02-12T18:01:08;12.50;99.90
12604;DHT22;6367;52.508;13.284;2023-02-12T18:03:36;12.50;99.90
12604;DHT22;6367;52.508;13.284;2023-02-12T18:06:02;12.70;99.90
12604;DHT22;6367;52.508;13.284;2023-02-12T18:08:28;12.30;99.90
12604;DHT22;6367;52.508;13.284;2023-02-12T18:10:54;12.30;99.90
12604;DHT22;6367;52.508;13.284;2023-02-12T18:13:20;12.30;99.90
12604;DHT22;6367;52.508;13.284;2023-02-12T18:15:45;12.30;99.90
12604;DHT22;6367;52.508;13.284;2023-02-12T18:18:11;12.20;99.90
12604;DHT22;6367;52.508;13.284;2023-02-12T18:20:39;12.30;99.90
12604;DHT22;6367;52.508;13.284;2023-02-12T18:23:05;12.30;99.90
12604;DHT22;6367;52.508;13.284;2023-02-12T18:25:33;12.30;99.90
12604;DHT22;6367;52.508;13.284;2023-02-12T18:27:59;12.30;99.90
12604;DHT22;6367;52.508;13.284;2023-02-12T18:30:26;12.20;99.90
12604;DHT22;6367;52.508;13.284;2023-02-12T18:32:52;12.20;99.90